sensor_id;sensor_type;location;lat;lon;timestamp;pressure;altitude;pressure_sealevel;temperature;humidity
74544;BME280;63016;55.030;38.710;2022-09-03T00:02:36;100489.38;;;8.35;55.53
74544;BME280;63016;55.030;38.710;2022-09-03T00:08:19;100488.97;;;8.30;56.17
74544;BME280;63016;55.030;38.710;2022-09-03T00:10:58;100501.28;;;8.28;56.68
74544;BME280;63016;55.030;38.710;2022-09-03T00:15:58;100500.16;;;8.21;56.62
74544;BME280;63016;55.030;38.710;2022-09-03T00:18:29;100503.59;;;8.21;56.55
74544;BME280;63016;55.030;38.710;2022-09-03T00:21:01;100511.53;;;8.20;57.19
74544;BME280;63016;55.030;38.710;2022-09-03T00:23:34;100510.56;;;8.21;57.55
74544;BME280;63016;55.030;38.710;2022-09-03T00:28:58;100513.31;;;8.19;56.26
74544;BME280;63016;55.030;38.710;2022-09-03T00:31:39;100518.50;;;8.19;56.81
74544;BME280;63016;55.030;38.710;2022-09-03T00:34:23;100517.00;;;8.17;57.10
74544;BME280;63016;55.030;38.710;2022-09-03T00:36:50;100526.84;;;8.13;57.33
74544;BME280;63016;55.030;38.710;2022-09-03T00:39:19;100520.13;;;8.11;57.00
74544;BME280;63016;55.030;38.710;2022-09-03T00:50:10;100520.00;;;8.03;56.73
74544;BME280;63016;55.030;38.710;2022-09-03T00:52:53;100520.94;;;8.02;56.63
74544;BME280;63016;55.030;38.710;2022-09-03T01:00:54;100531.19;;;7.93;57.49
74544;BME280;63016;55.030;38.710;2022-09-03T01:03:58;100528.59;;;7.93;56.25
74544;BME280;63016;55.030;38.710;2022-09-03T01:09:07;100535.00;;;7.89;56.83
74544;BME280;63016;55.030;38.710;2022-09-03T01:11:58;100538.56;;;7.88;56.89
74544;BME280;63016;55.030;38.710;2022-09-03T01:19:46;100540.03;;;7.81;56.94
74544;BME280;63016;55.030;38.710;2022-09-03T01:31:08;100554.09;;;7.69;57.48
74544;BME280;63016;55.030;38.710;2022-09-03T01:33:37;100550.78;;;7.67;56.83
74544;BME280;63016;55.030;38.710;2022-09-03T01:38:59;100562.81;;;7.68;57.38
74544;BME280;63016;55.030;38.710;2022-09-03T01:47:44;100569.78;;;7.67;56.74
74544;BME280;63016;55.030;38.710;2022-09-03T01:53:09;100569.19;;;7.64;57.46
74544;BME280;63016;55.030;38.710;2022-09-03T01:56:01;100567.72;;;7.61;56.66
74544;BME280;63016;55.030;38.710;2022-09-03T01:58:48;100572.31;;;7.58;57.20
74544;BME280;63016;55.030;38.710;2022-09-03T02:01:24;100575.75;;;7.58;57.35
74544;BME280;63016;55.030;38.710;2022-09-03T02:03:52;100579.28;;;7.57;57.10
74544;BME280;63016;55.030;38.710;2022-09-03T02:06:25;100579.44;;;7.56;57.43
74544;BME280;63016;55.030;38.710;2022-09-03T02:08:52;100579.53;;;7.54;57.51
74544;BME280;63016;55.030;38.710;2022-09-03T02:11:18;100586.50;;;7.54;57.97
74544;BME280;63016;55.030;38.710;2022-09-03T02:13:46;100579.97;;;7.50;57.41
74544;BME280;63016;55.030;38.710;2022-09-03T02:16:16;100590.34;;;7.50;57.98
74544;BME280;63016;55.030;38.710;2022-09-03T02:18:51;100589.50;;;7.49;57.94
74544;BME280;63016;55.030;38.710;2022-09-03T02:21:20;100601.78;;;7.47;57.50
74544;BME280;63016;55.030;38.710;2022-09-03T02:23:48;100580.34;;;7.45;57.48
74544;BME280;63016;55.030;38.710;2022-09-03T02:26:15;100587.28;;;7.44;57.60
74544;BME280;63016;55.030;38.710;2022-09-03T02:28:43;100589.19;;;7.42;57.53
74544;BME280;63016;55.030;38.710;2022-09-03T02:31:09;100592.19;;;7.38;57.75
74544;BME280;63016;55.030;38.710;2022-09-03T02:33:39;100600.91;;;7.37;57.63
74544;BME280;63016;55.030;38.710;2022-09-03T02:36:10;100591.50;;;7.36;57.82
74544;BME280;63016;55.030;38.710;2022-09-03T02:38:36;100606.13;;;7.37;57.37
74544;BME280;63016;55.030;38.710;2022-09-03T02:41:02;100601.16;;;7.34;58.20
74544;BME280;63016;55.030;38.710;2022-09-03T02:46:17;100611.00;;;7.30;57.84
74544;BME280;63016;55.030;38.710;2022-09-03T02:48:45;100606.72;;;7.29;57.83
74544;BME280;63016;55.030;38.710;2022-09-03T02:51:11;100614.66;;;7.28;58.16
74544;BME280;63016;55.030;38.710;2022-09-03T02:53:36;100617.13;;;7.29;57.82
74544;BME280;63016;55.030;38.710;2022-09-03T02:56:02;100612.75;;;7.30;58.14
74544;BME280;63016;55.030;38.710;2022-09-03T02:58:28;100618.78;;;7.30;57.83
74544;BME280;63016;55.030;38.710;2022-09-03T03:00:56;100617.13;;;7.29;57.91
74544;BME280;63016;55.030;38.710;2022-09-03T03:03:21;100619.72;;;7.29;58.15
74544;BME280;63016;55.030;38.710;2022-09-03T03:05:50;100621.63;;;7.27;58.37
74544;BME280;63016;55.030;38.710;2022-09-03T03:08:16;100625.03;;;7.28;58.23
74544;BME280;63016;55.030;38.710;2022-09-03T03:10:46;100636.25;;;7.28;58.33
74544;BME280;63016;55.030;38.710;2022-09-03T03:13:12;100633.88;;;7.25;58.29
74544;BME280;63016;55.030;38.710;2022-09-03T03:15:38;100640.75;;;7.26;58.39
74544;BME280;63016;55.030;38.710;2022-09-03T03:18:04;100632.81;;;7.28;58.53
74544;BME280;63016;55.030;38.710;2022-09-03T03:20:31;100637.78;;;7.31;58.56
74544;BME280;63016;55.030;38.710;2022-09-03T03:22:57;100647.06;;;7.33;58.03
74544;BME280;63016;55.030;38.710;2022-09-03T03:25:22;100650.38;;;7.35;58.65
74544;BME280;63016;55.030;38.710;2022-09-03T03:27:48;100657.06;;;7.38;58.75
74544;BME280;63016;55.030;38.710;2022-09-03T03:30:16;100649.16;;;7.39;58.45
74544;BME280;63016;55.030;38.710;2022-09-03T03:32:41;100650.69;;;7.42;58.77
74544;BME280;63016;55.030;38.710;2022-09-03T03:35:07;100653.97;;;7.44;58.59
74544;BME280;63016;55.030;38.710;2022-09-03T03:37:33;100653.72;;;7.47;58.83
74544;BME280;63016;55.030;38.710;2022-09-03T03:39:59;100658.53;;;7.52;58.42
74544;BME280;63016;55.030;38.710;2022-09-03T03:42:25;100656.75;;;7.52;58.95
74544;BME280;63016;55.030;38.710;2022-09-03T03:44:50;100659.94;;;7.56;58.90
74544;BME280;63016;55.030;38.710;2022-09-03T03:47:16;100658.03;;;7.58;59.36
74544;BME280;63016;55.030;38.710;2022-09-03T03:49:43;100665.44;;;7.62;59.48
74544;BME280;63016;55.030;38.710;2022-09-03T03:52:08;100666.69;;;7.68;59.62
74544;BME280;63016;55.030;38.710;2022-09-03T03:54:34;100677.66;;;7.71;59.39
74544;BME280;63016;55.030;38.710;2022-09-03T03:56:59;100682.47;;;7.76;59.28
74544;BME280;63016;55.030;38.710;2022-09-03T03:59:27;100677.72;;;7.81;59.39
74544;BME280;63016;55.030;38.710;2022-09-03T04:01:55;100679.94;;;7.86;59.23
74544;BME280;63016;55.030;38.710;2022-09-03T04:04:21;100681.19;;;7.91;59.29
74544;BME280;63016;55.030;38.710;2022-09-03T04:06:46;100676.41;;;7.96;59.16
74544;BME280;63016;55.030;38.710;2022-09-03T04:09:12;100675.94;;;8.03;59.42
74544;BME280;63016;55.030;38.710;2022-09-03T04:11:37;100676.34;;;8.08;59.64
74544;BME280;63016;55.030;38.710;2022-09-03T04:14:03;100682.00;;;8.13;59.81
74544;BME280;63016;55.030;38.710;2022-09-03T04:16:29;100677.91;;;8.20;59.67
74544;BME280;63016;55.030;38.710;2022-09-03T04:18:56;100674.91;;;8.24;59.03
74544;BME280;63016;55.030;38.710;2022-09-03T04:21:26;100679.72;;;8.29;60.19
74544;BME280;63016;55.030;38.710;2022-09-03T04:23:52;100675.66;;;8.36;60.05
74544;BME280;63016;55.030;38.710;2022-09-03T04:26:20;100675.97;;;8.43;59.65
74544;BME280;63016;55.030;38.710;2022-09-03T04:28:47;100688.28;;;8.50;60.03
74544;BME280;63016;55.030;38.710;2022-09-03T04:31:17;100690.38;;;8.57;59.44
74544;BME280;63016;55.030;38.710;2022-09-03T04:33:42;100692.19;;;8.66;59.83
74544;BME280;63016;55.030;38.710;2022-09-03T04:36:16;100690.44;;;8.76;60.00
74544;BME280;63016;55.030;38.710;2022-09-03T04:38:44;100689.63;;;8.85;59.57
74544;BME280;63016;55.030;38.710;2022-09-03T04:41:11;100686.31;;;8.93;60.10
74544;BME280;63016;55.030;38.710;2022-09-03T04:43:38;100692.38;;;9.03;60.27
74544;BME280;63016;55.030;38.710;2022-09-03T04:46:05;100705.13;;;9.16;60.70
74544;BME280;63016;55.030;38.710;2022-09-03T04:48:33;100694.56;;;9.27;60.74
74544;BME280;63016;55.030;38.710;2022-09-03T04:51:05;100699.78;;;9.37;60.54
74544;BME280;63016;55.030;38.710;2022-09-03T04:53:36;100707.47;;;9.48;60.26
74544;BME280;63016;55.030;38.710;2022-09-03T04:56:10;100709.91;;;9.59;60.27
74544;BME280;63016;55.030;38.710;2022-09-03T04:58:36;100715.09;;;9.69;59.66
74544;BME280;63016;55.030;38.710;2022-09-03T05:01:14;100706.03;;;9.83;60.41
74544;BME280;63016;55.030;38.710;2022-09-03T05:03:43;100710.94;;;9.95;60.41
74544;BME280;63016;55.030;38.710;2022-09-03T05:06:08;100709.81;;;10.08;60.34
74544;BME280;63016;55.030;38.710;2022-09-03T05:08:35;100718.25;;;10.19;60.32
74544;BME280;63016;55.030;38.710;2022-09-03T05:11:05;100713.84;;;10.29;59.52
74544;BME280;63016;55.030;38.710;2022-09-03T05:13:32;100711.22;;;10.39;59.85
74544;BME280;63016;55.030;38.710;2022-09-03T05:16:07;100714.31;;;10.52;59.64
74544;BME280;63016;55.030;38.710;2022-09-03T05:18:33;100720.03;;;10.66;60.20
74544;BME280;63016;55.030;38.710;2022-09-03T05:21:04;100718.03;;;10.77;60.26
74544;BME280;63016;55.030;38.710;2022-09-03T05:23:31;100721.81;;;10.93;60.12
74544;BME280;63016;55.030;38.710;2022-09-03T05:25:58;100715.53;;;11.03;59.83
74544;BME280;63016;55.030;38.710;2022-09-03T05:28:25;100719.72;;;11.14;59.89
74544;BME280;63016;55.030;38.710;2022-09-03T05:31:06;100713.59;;;11.23;59.31
74544;BME280;63016;55.030;38.710;2022-09-03T05:33:36;100716.94;;;11.33;59.27
74544;BME280;63016;55.030;38.710;2022-09-03T05:36:04;100715.88;;;11.44;59.46
74544;BME280;63016;55.030;38.710;2022-09-03T05:38:30;100716.94;;;11.51;59.50
74544;BME280;63016;55.030;38.710;2022-09-03T05:41:05;100719.84;;;11.66;59.22
74544;BME280;63016;55.030;38.710;2022-09-03T05:43:32;100720.56;;;11.76;58.92
74544;BME280;63016;55.030;38.710;2022-09-03T05:46:03;100716.25;;;11.85;59.13
74544;BME280;63016;55.030;38.710;2022-09-03T05:48:29;100723.66;;;11.98;58.75
74544;BME280;63016;55.030;38.710;2022-09-03T05:51:02;100715.56;;;12.09;58.79
74544;BME280;63016;55.030;38.710;2022-09-03T05:53:29;100727.69;;;12.18;58.63
74544;BME280;63016;55.030;38.710;2022-09-03T05:56:01;100729.53;;;12.26;59.10
74544;BME280;63016;55.030;38.710;2022-09-03T05:58:31;100727.31;;;12.39;59.32
74544;BME280;63016;55.030;38.710;2022-09-03T06:00:57;100721.50;;;12.53;58.73
74544;BME280;63016;55.030;38.710;2022-09-03T06:03:23;100718.59;;;12.65;58.63
74544;BME280;63016;55.030;38.710;2022-09-03T06:05:50;100730.41;;;12.77;58.44
74544;BME280;63016;55.030;38.710;2022-09-03T06:08:16;100727.19;;;12.91;58.73
74544;BME280;63016;55.030;38.710;2022-09-03T06:10:42;100719.34;;;13.07;58.64
74544;BME280;63016;55.030;38.710;2022-09-03T06:13:07;100724.81;;;13.22;58.53
74544;BME280;63016;55.030;38.710;2022-09-03T06:15:33;100734.97;;;13.33;58.11
74544;BME280;63016;55.030;38.710;2022-09-03T06:17:58;100728.91;;;13.41;57.75
74544;BME280;63016;55.030;38.710;2022-09-03T06:20:24;100729.56;;;13.51;57.81
74544;BME280;63016;55.030;38.710;2022-09-03T06:22:52;100733.66;;;13.62;57.56
74544;BME280;63016;55.030;38.710;2022-09-03T06:25:18;100741.22;;;13.73;57.74
74544;BME280;63016;55.030;38.710;2022-09-03T06:27:44;100737.56;;;13.82;57.86
74544;BME280;63016;55.030;38.710;2022-09-03T06:30:10;100741.50;;;13.95;57.61
74544;BME280;63016;55.030;38.710;2022-09-03T06:32:46;100741.81;;;14.08;57.25
74544;BME280;63016;55.030;38.710;2022-09-03T06:35:12;100744.06;;;14.19;57.14
74544;BME280;63016;55.030;38.710;2022-09-03T06:37:41;100737.16;;;14.26;57.27
74544;BME280;63016;55.030;38.710;2022-09-03T06:40:08;100749.56;;;14.40;56.97
74544;BME280;63016;55.030;38.710;2022-09-03T06:42:39;100748.91;;;14.47;56.66
74544;BME280;63016;55.030;38.710;2022-09-03T06:45:09;100746.78;;;14.50;56.70
74544;BME280;63016;55.030;38.710;2022-09-03T06:47:35;100760.38;;;14.62;56.43
74544;BME280;63016;55.030;38.710;2022-09-03T06:50:01;100749.66;;;14.72;56.83
74544;BME280;63016;55.030;38.710;2022-09-03T06:52:27;100759.16;;;14.81;56.65
74544;BME280;63016;55.030;38.710;2022-09-03T06:54:54;100751.56;;;14.86;55.77
74544;BME280;63016;55.030;38.710;2022-09-03T06:57:19;100748.75;;;14.87;56.56
74544;BME280;63016;55.030;38.710;2022-09-03T06:59:44;100753.16;;;14.95;56.61
74544;BME280;63016;55.030;38.710;2022-09-03T07:02:10;100757.91;;;15.00;56.50
74544;BME280;63016;55.030;38.710;2022-09-03T07:04:36;100762.47;;;15.06;55.75
74544;BME280;63016;55.030;38.710;2022-09-03T07:07:01;100748.31;;;15.07;55.79
74544;BME280;63016;55.030;38.710;2022-09-03T07:09:27;100755.50;;;15.13;55.66
74544;BME280;63016;55.030;38.710;2022-09-03T07:11:53;100742.66;;;15.18;55.57
74544;BME280;63016;55.030;38.710;2022-09-03T07:14:20;100760.53;;;15.23;55.29
74544;BME280;63016;55.030;38.710;2022-09-03T07:16:47;100752.78;;;15.29;55.56
74544;BME280;63016;55.030;38.710;2022-09-03T07:19:14;100760.06;;;15.42;55.67
74544;BME280;63016;55.030;38.710;2022-09-03T07:21:41;100758.66;;;15.54;56.04
74544;BME280;63016;55.030;38.710;2022-09-03T07:24:07;100758.47;;;15.64;55.30
74544;BME280;63016;55.030;38.710;2022-09-03T07:26:36;100756.59;;;15.73;55.09
74544;BME280;63016;55.030;38.710;2022-09-03T07:29:03;100764.38;;;15.81;54.98
74544;BME280;63016;55.030;38.710;2022-09-03T07:31:37;100759.88;;;15.89;55.43
74544;BME280;63016;55.030;38.710;2022-09-03T07:34:05;100762.44;;;15.98;55.06
74544;BME280;63016;55.030;38.710;2022-09-03T07:36:39;100760.53;;;16.06;55.28
74544;BME280;63016;55.030;38.710;2022-09-03T07:39:07;100775.25;;;16.15;54.44
74544;BME280;63016;55.030;38.710;2022-09-03T07:41:35;100763.19;;;16.21;54.25
74544;BME280;63016;55.030;38.710;2022-09-03T07:44:01;100762.66;;;16.26;54.17
74544;BME280;63016;55.030;38.710;2022-09-03T07:46:32;100756.38;;;16.27;54.18
74544;BME280;63016;55.030;38.710;2022-09-03T07:48:59;100762.91;;;16.31;54.09
74544;BME280;63016;55.030;38.710;2022-09-03T07:51:30;100772.53;;;16.38;54.00
74544;BME280;63016;55.030;38.710;2022-09-03T07:53:58;100766.16;;;16.48;54.26
74544;BME280;63016;55.030;38.710;2022-09-03T07:56:28;100760.91;;;16.48;54.06
74544;BME280;63016;55.030;38.710;2022-09-03T07:58:57;100766.28;;;16.54;53.73
74544;BME280;63016;55.030;38.710;2022-09-03T08:01:24;100759.06;;;16.63;54.12
74544;BME280;63016;55.030;38.710;2022-09-03T08:03:51;100753.25;;;16.67;53.59
74544;BME280;63016;55.030;38.710;2022-09-03T08:06:20;100765.78;;;16.65;52.73
74544;BME280;63016;55.030;38.710;2022-09-03T08:08:46;100761.97;;;16.53;52.73
74544;BME280;63016;55.030;38.710;2022-09-03T08:11:17;100765.81;;;16.51;53.55
74544;BME280;63016;55.030;38.710;2022-09-03T08:16:13;100753.91;;;16.69;53.64
74544;BME280;63016;55.030;38.710;2022-09-03T08:18:39;100750.75;;;16.74;53.31
74544;BME280;63016;55.030;38.710;2022-09-03T08:21:10;100751.00;;;16.79;53.67
74544;BME280;63016;55.030;38.710;2022-09-03T08:23:41;100751.47;;;16.83;53.20
74544;BME280;63016;55.030;38.710;2022-09-03T08:26:07;100748.81;;;16.83;52.46
74544;BME280;63016;55.030;38.710;2022-09-03T08:28:34;100754.44;;;16.80;52.68
74544;BME280;63016;55.030;38.710;2022-09-03T08:31:14;100758.25;;;16.77;52.82
74544;BME280;63016;55.030;38.710;2022-09-03T08:33:42;100757.09;;;16.80;52.97
74544;BME280;63016;55.030;38.710;2022-09-03T08:36:10;100743.53;;;16.83;52.99
74544;BME280;63016;55.030;38.710;2022-09-03T08:38:37;100747.00;;;16.83;52.61
74544;BME280;63016;55.030;38.710;2022-09-03T08:49:14;100736.25;;;16.70;52.34
74544;BME280;63016;55.030;38.710;2022-09-03T08:51:44;100736.34;;;16.62;52.39
74544;BME280;63016;55.030;38.710;2022-09-03T08:54:12;100731.03;;;16.55;52.07
74544;BME280;63016;55.030;38.710;2022-09-03T08:56:39;100735.56;;;16.47;52.18
74544;BME280;63016;55.030;38.710;2022-09-03T08:59:07;100729.41;;;16.54;53.07
74544;BME280;63016;55.030;38.710;2022-09-03T09:01:56;100735.09;;;16.73;53.28
74544;BME280;63016;55.030;38.710;2022-09-03T09:07:10;100730.19;;;17.06;52.81
74544;BME280;63016;55.030;38.710;2022-09-03T09:20:49;100741.56;;;17.28;52.87
74544;BME280;63016;55.030;38.710;2022-09-03T09:23:23;100744.47;;;17.33;51.47
74544;BME280;63016;55.030;38.710;2022-09-03T09:26:22;100735.78;;;17.39;52.92
74544;BME280;63016;55.030;38.710;2022-09-03T09:29:04;100727.75;;;17.47;52.29
74544;BME280;63016;55.030;38.710;2022-09-03T09:33:29;100733.97;;;17.61;52.14
74544;BME280;63016;55.030;38.710;2022-09-03T09:35:55;100723.50;;;17.74;51.65
74544;BME280;63016;55.030;38.710;2022-09-03T09:38:28;100725.56;;;17.79;51.22
74544;BME280;63016;55.030;38.710;2022-09-03T09:40:54;100725.78;;;17.77;50.77
74544;BME280;63016;55.030;38.710;2022-09-03T09:45:22;100724.41;;;17.88;51.16
74544;BME280;63016;55.030;38.710;2022-09-03T09:47:48;100725.22;;;17.88;51.14
74544;BME280;63016;55.030;38.710;2022-09-03T09:50:20;100707.78;;;17.87;51.13
74544;BME280;63016;55.030;38.710;2022-09-03T09:55:51;100720.84;;;18.02;50.88
74544;BME280;63016;55.030;38.710;2022-09-03T09:58:19;100711.75;;;18.05;50.52
74544;BME280;63016;55.030;38.710;2022-09-03T10:01:11;100719.09;;;18.09;51.45
74544;BME280;63016;55.030;38.710;2022-09-03T10:03:53;100721.31;;;18.12;51.11
74544;BME280;63016;55.030;38.710;2022-09-03T10:06:28;100720.94;;;18.15;50.49
74544;BME280;63016;55.030;38.710;2022-09-03T10:09:18;100714.06;;;18.21;51.06
74544;BME280;63016;55.030;38.710;2022-09-03T10:11:48;100716.56;;;18.29;51.38
